createdAt,value
2023-12-03T00:00:07.582Z,36.66
2023-12-03T00:02:35.302Z,37.51
2023-12-03T00:05:03.732Z,37.67
2023-12-03T00:07:32.478Z,37.28
2023-12-03T00:10:00.699Z,37.35
2023-12-03T00:12:27.780Z,37.75
2023-12-03T00:14:54.840Z,38.06
2023-12-03T00:17:23.230Z,37.94
2023-12-03T00:19:50.531Z,37.50
2023-12-03T00:22:17.825Z,37.33
2023-12-03T00:24:44.923Z,37.26
2023-12-03T00:27:12.541Z,37.95
2023-12-03T00:29:39.665Z,37.43
2023-12-03T00:32:07.046Z,37.63
2023-12-03T00:34:35.933Z,37.75
2023-12-03T00:37:03.140Z,36.56
2023-12-03T00:39:30.378Z,37.72
2023-12-03T00:41:57.541Z,37.16
2023-12-03T00:44:24.864Z,36.80
2023-12-03T00:46:51.819Z,37.56
2023-12-03T00:49:18.954Z,37.26
2023-12-03T00:51:47.530Z,37.95
2023-12-03T00:54:14.681Z,37.81
2023-12-03T00:56:41.826Z,38.47
2023-12-03T00:59:08.816Z,38.51
2023-12-03T01:01:36.114Z,38.30
2023-12-03T01:04:03.268Z,38.00
2023-12-03T01:06:30.260Z,38.45
2023-12-03T01:08:58.818Z,38.80
2023-12-03T01:11:35.268Z,38.09
2023-12-03T01:14:03.958Z,38.32
2023-12-03T01:16:31.009Z,38.61
2023-12-03T01:18:58.613Z,38.86
2023-12-03T01:21:26.212Z,38.24
2023-12-03T01:23:53.362Z,37.87
2023-12-03T01:26:21.802Z,37.50
2023-12-03T01:28:48.866Z,37.62
2023-12-03T01:31:15.876Z,37.86
2023-12-03T01:33:42.997Z,38.15
2023-12-03T01:36:10.763Z,38.09
2023-12-03T01:38:37.760Z,38.58
2023-12-03T01:41:05.339Z,39.26
2023-12-03T01:43:33.960Z,38.91
2023-12-03T01:46:01.070Z,39.38
2023-12-03T01:48:28.290Z,39.16
2023-12-03T01:50:58.373Z,39.34
2023-12-03T01:53:25.816Z,39.79
2023-12-03T01:55:53.254Z,39.81
2023-12-03T01:58:21.861Z,39.14
2023-12-03T02:00:50.299Z,38.81
2023-12-03T02:03:17.752Z,40.27
2023-12-03T02:05:49.283Z,39.14
2023-12-03T02:08:16.367Z,39.11
2023-12-03T02:10:43.621Z,39.08
2023-12-03T02:13:11.328Z,39.25
2023-12-03T02:15:38.472Z,39.34
2023-12-03T02:18:06.927Z,39.61
2023-12-03T02:20:34.140Z,39.37
2023-12-03T02:23:03.212Z,39.11
2023-12-03T02:25:30.384Z,38.73
2023-12-03T02:27:57.526Z,39.50
2023-12-03T02:30:24.583Z,38.72
2023-12-03T02:32:51.749Z,38.75
2023-12-03T02:35:18.919Z,39.10
2023-12-03T02:37:46.056Z,37.84
2023-12-03T02:40:14.525Z,38.64
2023-12-03T02:42:41.458Z,39.00
2023-12-03T02:45:09.660Z,39.25
2023-12-03T02:47:36.835Z,38.61
2023-12-03T02:50:04.294Z,38.57
2023-12-03T02:52:31.189Z,38.75
2023-12-03T02:54:58.311Z,38.66
2023-12-03T02:57:26.800Z,38.93
2023-12-03T02:59:53.806Z,38.62
2023-12-03T03:02:20.812Z,38.15
2023-12-03T03:04:47.975Z,38.80
2023-12-03T03:07:14.936Z,39.06
2023-12-03T03:09:43.433Z,39.03
2023-12-03T03:12:10.818Z,38.86
2023-12-03T03:14:39.129Z,39.51
2023-12-03T03:17:05.996Z,38.33
2023-12-03T03:19:33.121Z,38.61
2023-12-03T03:22:00.130Z,38.58
2023-12-03T03:24:27.232Z,38.76
2023-12-03T03:26:54.204Z,38.67
2023-12-03T03:29:21.232Z,38.51
2023-12-03T03:31:49.618Z,38.72
2023-12-03T03:34:16.740Z,38.96
2023-12-03T03:36:44.054Z,38.47
2023-12-03T03:39:11.186Z,38.89
2023-12-03T03:41:38.197Z,39.29
2023-12-03T03:44:05.414Z,38.99
2023-12-03T03:46:32.388Z,39.23
2023-12-03T03:49:00.881Z,39.01
2023-12-03T03:51:27.884Z,38.13
2023-12-03T03:53:54.945Z,38.78
2023-12-03T03:56:22.015Z,38.55
2023-12-03T03:58:48.907Z,38.78
2023-12-03T04:01:15.913Z,39.19
2023-12-03T04:03:42.963Z,38.58
2023-12-03T04:06:11.924Z,38.83
2023-12-03T04:08:40.387Z,39.21
2023-12-03T04:11:07.807Z,39.65
2023-12-03T04:13:36.908Z,38.82
2023-12-03T04:16:04.185Z,38.70
2023-12-03T04:18:31.106Z,39.73
2023-12-03T04:20:58.182Z,39.33
2023-12-03T04:23:26.590Z,39.22
2023-12-03T04:25:53.522Z,38.21
2023-12-03T04:28:20.580Z,38.95
2023-12-03T04:30:47.608Z,38.68
2023-12-03T04:33:14.708Z,38.29
2023-12-03T04:35:41.744Z,38.37
2023-12-03T04:38:08.583Z,38.83
2023-12-03T04:40:37.366Z,39.05
2023-12-03T04:43:04.344Z,38.91
2023-12-03T04:45:31.455Z,38.83
2023-12-03T04:47:58.538Z,39.60
2023-12-03T04:50:25.654Z,38.80
2023-12-03T04:52:52.627Z,39.20
2023-12-03T04:55:19.635Z,38.58
2023-12-03T04:57:48.123Z,38.47
2023-12-03T05:00:15.955Z,39.01
2023-12-03T05:02:42.936Z,38.56
2023-12-03T05:05:10.028Z,38.57
2023-12-03T05:07:37.125Z,37.97
2023-12-03T05:10:05.254Z,37.83
2023-12-03T05:12:32.330Z,38.51
2023-12-03T05:15:00.914Z,38.74
2023-12-03T05:17:28.026Z,37.94
2023-12-03T05:19:55.185Z,38.56
2023-12-03T05:22:22.162Z,38.19
2023-12-03T05:24:49.356Z,38.40
2023-12-03T05:27:16.332Z,39.00
2023-12-03T05:29:43.794Z,38.71
2023-12-03T05:32:12.537Z,39.07
2023-12-03T05:34:39.655Z,39.04
2023-12-03T05:37:06.560Z,38.75
2023-12-03T05:39:33.637Z,39.16
2023-12-03T05:42:00.730Z,38.24
2023-12-03T05:44:27.918Z,38.62
2023-12-03T05:46:54.814Z,39.34
2023-12-03T05:49:23.630Z,38.98
2023-12-03T05:51:50.991Z,38.92
2023-12-03T05:54:18.087Z,38.72
2023-12-03T05:56:47.556Z,38.91
2023-12-03T05:59:15.484Z,38.24
2023-12-03T06:01:42.482Z,38.54
2023-12-03T06:04:09.652Z,38.24
2023-12-03T06:06:38.406Z,38.68
2023-12-03T06:09:05.794Z,38.87
2023-12-03T06:11:32.805Z,38.81
2023-12-03T06:13:59.993Z,38.31
2023-12-03T06:16:26.953Z,38.00
2023-12-03T06:18:54.087Z,38.00
2023-12-03T06:21:21.171Z,38.28
2023-12-03T06:23:49.796Z,38.33
2023-12-03T06:26:16.759Z,38.54
2023-12-03T06:28:43.800Z,38.32
2023-12-03T06:31:11.442Z,38.54
2023-12-03T06:33:38.498Z,38.57
2023-12-03T06:36:07.138Z,38.73
2023-12-03T06:38:34.053Z,38.14
2023-12-03T06:41:02.528Z,38.38
2023-12-03T06:43:29.464Z,38.36
2023-12-03T06:45:56.564Z,38.46
2023-12-03T06:48:23.977Z,38.61
2023-12-03T06:50:50.912Z,38.32
2023-12-03T06:53:17.958Z,38.62
2023-12-03T06:55:45.023Z,38.07
2023-12-03T06:58:13.616Z,38.12
2023-12-03T07:00:40.707Z,38.35
2023-12-03T07:03:07.781Z,37.74
2023-12-03T07:05:34.978Z,37.94
2023-12-03T07:08:01.872Z,38.27
2023-12-03T07:10:29.066Z,38.07
2023-12-03T07:12:56.028Z,37.87
2023-12-03T07:15:24.665Z,38.28
2023-12-03T07:17:51.664Z,38.39
2023-12-03T07:20:18.744Z,37.53
2023-12-03T07:22:45.682Z,37.55
2023-12-03T07:25:12.617Z,38.00
2023-12-03T07:27:39.547Z,37.67
2023-12-03T07:30:07.816Z,37.40
2023-12-03T07:32:36.285Z,37.49
2023-12-03T07:35:03.424Z,37.85
2023-12-03T07:37:30.352Z,37.35
2023-12-03T07:39:57.512Z,36.61
2023-12-03T07:42:26.087Z,36.17
2023-12-03T07:44:53.310Z,35.70
2023-12-03T07:47:20.269Z,36.32
2023-12-03T07:49:48.718Z,36.31
2023-12-03T07:52:15.667Z,35.60
2023-12-03T07:54:42.977Z,34.65
2023-12-03T07:57:10.295Z,33.54
2023-12-03T07:59:40.349Z,33.71
2023-12-03T08:02:07.975Z,32.32
2023-12-03T08:04:34.962Z,32.81
2023-12-03T08:07:03.436Z,31.66
2023-12-03T08:09:30.597Z,30.06
2023-12-03T08:11:57.753Z,29.93
2023-12-03T08:14:24.767Z,29.94
2023-12-03T08:16:52.106Z,29.70
2023-12-03T08:19:19.242Z,30.31
2023-12-03T08:21:46.488Z,29.97
2023-12-03T08:24:15.262Z,30.47
2023-12-03T08:26:42.451Z,30.85
2023-12-03T08:29:09.608Z,29.48
2023-12-03T08:31:36.601Z,29.50
2023-12-03T08:34:03.697Z,29.41
2023-12-03T08:36:30.842Z,29.06
2023-12-03T08:38:57.850Z,29.52
2023-12-03T08:41:26.198Z,30.20
2023-12-03T08:43:53.222Z,29.05
2023-12-03T08:46:20.254Z,29.50
2023-12-03T08:48:47.647Z,29.10
2023-12-03T08:51:14.762Z,29.23
2023-12-03T08:53:41.732Z,30.18
2023-12-03T08:56:11.975Z,29.58
2023-12-03T08:58:40.516Z,28.83
2023-12-03T09:01:07.821Z,28.15
2023-12-03T09:03:35.396Z,29.01
2023-12-03T09:06:02.494Z,29.17
2023-12-03T09:08:29.413Z,28.07
2023-12-03T09:10:56.529Z,28.70
2023-12-03T09:13:23.718Z,28.14
2023-12-03T09:15:52.119Z,31.10
2023-12-03T09:18:19.143Z,26.33
2023-12-03T09:20:46.728Z,26.95
2023-12-03T09:23:14.187Z,27.46
2023-12-03T09:25:41.166Z,27.25
2023-12-03T09:28:08.083Z,26.98
2023-12-03T09:30:35.587Z,28.22
2023-12-03T09:33:05.065Z,28.19
2023-12-03T09:35:33.346Z,27.60
2023-12-03T09:38:00.454Z,27.07
2023-12-03T09:40:27.589Z,27.61
2023-12-03T09:42:54.681Z,29.38
2023-12-03T09:45:25.267Z,27.38
2023-12-03T09:48:01.130Z,27.94
2023-12-03T09:50:31.214Z,28.18
2023-12-03T09:52:59.660Z,28.79
2023-12-03T09:55:28.617Z,28.68
2023-12-03T09:57:56.644Z,29.69
2023-12-03T10:00:24.154Z,30.30
2023-12-03T10:02:54.145Z,32.69
2023-12-03T10:05:21.273Z,31.83
2023-12-03T10:07:49.896Z,32.09
2023-12-03T10:10:21.553Z,32.00
2023-12-03T10:12:53.118Z,33.77
2023-12-03T10:15:20.154Z,32.07
2023-12-03T10:17:47.854Z,32.81
2023-12-03T10:20:22.381Z,32.60
2023-12-03T10:22:51.644Z,32.83
2023-12-03T10:25:28.968Z,32.34
2023-12-03T10:27:57.277Z,32.34
2023-12-03T10:30:24.939Z,31.80
2023-12-03T10:32:52.234Z,30.96
2023-12-03T10:35:22.069Z,30.80
2023-12-03T10:37:51.366Z,31.49
2023-12-03T10:40:19.284Z,31.77
2023-12-03T10:42:47.982Z,30.79
2023-12-03T10:45:16.904Z,31.60
2023-12-03T10:47:45.084Z,32.74
2023-12-03T10:50:14.335Z,33.04
2023-12-03T10:52:42.706Z,33.68
2023-12-03T10:55:12.057Z,33.01
2023-12-03T10:57:49.337Z,33.16
2023-12-03T11:00:20.612Z,34.12
2023-12-03T11:03:00.528Z,35.39
2023-12-03T11:05:34.714Z,34.86
2023-12-03T11:08:03.478Z,35.09
2023-12-03T11:10:32.734Z,34.82
2023-12-03T11:13:01.220Z,34.09
2023-12-03T11:15:29.680Z,34.84
2023-12-03T11:17:59.208Z,34.70
2023-12-03T11:20:33.657Z,35.15
2023-12-03T11:23:26.676Z,35.16
2023-12-03T11:26:04.361Z,36.54
2023-12-03T11:28:31.364Z,35.31
2023-12-03T11:30:58.775Z,35.71
2023-12-03T11:33:29.047Z,35.24
2023-12-03T11:35:59.862Z,34.80
2023-12-03T11:38:30.915Z,34.80
2023-12-03T11:40:59.490Z,34.65
2023-12-03T11:43:28.392Z,34.18
2023-12-03T11:45:56.526Z,34.43
2023-12-03T11:48:26.073Z,33.69
2023-12-03T11:50:55.094Z,33.78
2023-12-03T11:53:37.578Z,34.06
2023-12-03T11:56:09.202Z,33.62
2023-12-03T11:58:36.368Z,34.26
2023-12-03T12:01:03.576Z,36.65
2023-12-03T12:03:31.958Z,33.55
2023-12-03T12:05:59.808Z,32.50
2023-12-03T12:08:26.827Z,33.76
2023-12-03T12:10:55.273Z,33.08
2023-12-03T12:13:24.707Z,33.33
2023-12-03T12:15:51.945Z,33.53
2023-12-03T12:18:19.065Z,33.52
2023-12-03T12:20:46.074Z,32.90
2023-12-03T12:23:13.136Z,31.98
2023-12-03T12:25:40.649Z,35.56
2023-12-03T12:28:07.771Z,31.91
2023-12-03T12:30:36.776Z,31.23
2023-12-03T12:33:04.932Z,32.05
2023-12-03T12:35:32.828Z,31.76
2023-12-03T12:38:00.758Z,32.25
2023-12-03T12:40:29.124Z,33.01
2023-12-03T12:43:06.966Z,32.39
2023-12-03T12:45:36.459Z,31.70
2023-12-03T12:48:04.002Z,31.27
2023-12-03T12:50:35.752Z,32.03
2023-12-03T12:53:02.961Z,31.67
2023-12-03T12:55:30.989Z,32.52
2023-12-03T12:57:59.513Z,30.92
2023-12-03T13:00:27.149Z,31.72
2023-12-03T13:02:55.880Z,32.28
2023-12-03T13:05:24.193Z,33.08
2023-12-03T13:07:52.917Z,30.69
2023-12-03T13:10:20.051Z,31.27
2023-12-03T13:12:47.857Z,31.25
2023-12-03T13:15:15.179Z,32.85
2023-12-03T13:17:53.285Z,31.71
2023-12-03T13:20:22.325Z,32.29
2023-12-03T13:22:49.378Z,33.03
2023-12-03T13:25:17.464Z,33.44
2023-12-03T13:27:44.636Z,33.37
2023-12-03T13:30:12.104Z,33.66
2023-12-03T13:32:41.071Z,33.04
2023-12-03T13:35:09.055Z,31.63
2023-12-03T13:37:38.238Z,32.11
2023-12-03T13:40:07.035Z,32.37
2023-12-03T13:42:34.536Z,32.90
2023-12-03T13:45:01.571Z,33.95
2023-12-03T13:47:28.569Z,33.21
2023-12-03T13:49:55.488Z,33.05
2023-12-03T13:52:23.239Z,33.04
2023-12-03T13:54:51.674Z,33.18
2023-12-03T13:57:18.656Z,33.17
2023-12-03T13:59:45.596Z,33.50
2023-12-03T14:02:15.531Z,33.28
2023-12-03T14:04:45.734Z,33.43
2023-12-03T14:07:13.017Z,33.45
2023-12-03T14:09:39.884Z,34.69
2023-12-03T14:12:08.425Z,34.91
2023-12-03T14:14:35.385Z,33.95
2023-12-03T14:17:03.073Z,33.94
2023-12-03T14:19:30.539Z,34.10
2023-12-03T14:21:57.898Z,33.53
2023-12-03T14:24:24.939Z,34.00
2023-12-03T14:26:51.993Z,34.21
2023-12-03T14:29:20.534Z,39.67
2023-12-03T14:31:47.448Z,38.02
2023-12-03T14:34:14.497Z,34.01
2023-12-03T14:36:42.892Z,35.69
2023-12-03T14:39:09.894Z,35.77
2023-12-03T14:41:36.997Z,36.83
2023-12-03T14:44:04.016Z,34.35
2023-12-03T14:46:32.512Z,35.48
2023-12-03T14:48:59.509Z,34.40
2023-12-03T14:51:26.599Z,33.95
2023-12-03T14:53:53.675Z,34.69
2023-12-03T14:56:20.988Z,34.75
2023-12-03T14:58:48.054Z,35.59
2023-12-03T15:01:15.071Z,36.68
2023-12-03T15:03:43.377Z,36.43
2023-12-03T15:06:10.516Z,47.73
2023-12-03T15:08:38.088Z,36.14
2023-12-03T15:11:05.799Z,36.68
2023-12-03T15:13:33.128Z,35.56
2023-12-03T15:16:00.628Z,34.13
2023-12-03T15:18:27.627Z,34.13
2023-12-03T15:20:56.188Z,36.17
2023-12-03T15:23:23.593Z,35.75
2023-12-03T15:25:50.676Z,35.48
2023-12-03T15:28:18.116Z,34.87
2023-12-03T15:30:46.224Z,36.23
2023-12-03T15:33:13.486Z,35.24
2023-12-03T15:35:40.545Z,44.18
2023-12-03T15:38:09.042Z,40.61
2023-12-03T15:40:35.998Z,36.36
2023-12-03T15:43:02.948Z,37.09
2023-12-03T15:45:30.101Z,38.03
2023-12-03T15:47:57.140Z,36.86
2023-12-03T15:50:24.616Z,36.66
2023-12-03T15:52:51.729Z,36.99
2023-12-03T15:55:23.134Z,35.75
2023-12-03T15:57:50.652Z,37.81
2023-12-03T16:00:17.969Z,37.56
2023-12-03T16:02:44.969Z,39.83
2023-12-03T16:05:12.001Z,38.26
2023-12-03T16:07:39.020Z,37.68
2023-12-03T16:10:07.986Z,38.14
2023-12-03T16:12:36.623Z,38.06
2023-12-03T16:15:04.199Z,39.19
2023-12-03T16:17:35.082Z,39.94
2023-12-03T16:20:02.877Z,39.08
2023-12-03T16:22:29.897Z,39.76
2023-12-03T16:24:57.106Z,39.71
2023-12-03T16:27:24.415Z,39.75
2023-12-03T16:29:53.096Z,39.74
2023-12-03T16:32:20.158Z,39.81
2023-12-03T16:34:47.312Z,39.63
2023-12-03T16:37:14.506Z,40.30
2023-12-03T16:39:41.851Z,39.87
2023-12-03T16:42:09.057Z,39.29
2023-12-03T16:44:35.974Z,39.59
2023-12-03T16:47:04.469Z,40.06
2023-12-03T16:49:31.572Z,39.64
2023-12-03T16:51:58.764Z,40.07
2023-12-03T16:54:25.862Z,38.97
2023-12-03T16:56:52.810Z,39.50
2023-12-03T16:59:20.343Z,39.47
2023-12-03T17:01:47.452Z,39.59
2023-12-03T17:04:15.879Z,39.15
2023-12-03T17:06:42.905Z,39.48
2023-12-03T17:09:09.861Z,39.22
2023-12-03T17:11:36.874Z,39.58
2023-12-03T17:14:03.894Z,39.48
2023-12-03T17:16:30.855Z,40.54
2023-12-03T17:18:58.359Z,40.18
2023-12-03T17:21:26.733Z,40.24
2023-12-03T17:23:54.120Z,39.51
2023-12-03T17:26:21.531Z,40.38
2023-12-03T17:28:48.481Z,39.13
2023-12-03T17:31:15.416Z,39.70
2023-12-03T17:33:42.378Z,39.78
2023-12-03T17:36:10.529Z,40.25
2023-12-03T17:38:38.958Z,39.99
2023-12-03T17:41:05.804Z,39.53
2023-12-03T17:43:32.964Z,39.42
2023-12-03T17:46:00.159Z,39.56
2023-12-03T17:48:27.308Z,39.25
2023-12-03T17:50:55.902Z,39.45
2023-12-03T17:53:24.054Z,39.65
2023-12-03T17:55:52.392Z,39.39
2023-12-03T17:58:19.956Z,38.69
2023-12-03T18:00:47.038Z,39.06
2023-12-03T18:03:14.094Z,39.22
2023-12-03T18:05:41.059Z,39.01
2023-12-03T18:08:07.961Z,38.69
2023-12-03T18:10:35.216Z,39.39
2023-12-03T18:13:04.096Z,39.12
2023-12-03T18:15:31.724Z,39.48
2023-12-03T18:18:01.202Z,39.51
2023-12-03T18:20:29.387Z,41.79
2023-12-03T18:22:56.402Z,38.86
2023-12-03T18:25:23.556Z,38.36
2023-12-03T18:27:50.557Z,38.42
2023-12-03T18:30:19.082Z,37.49
2023-12-03T18:32:46.413Z,38.18
2023-12-03T18:35:13.802Z,38.19
2023-12-03T18:37:40.697Z,37.42
2023-12-03T18:40:09.396Z,37.63
2023-12-03T18:42:36.349Z,38.54
2023-12-03T18:45:03.518Z,38.88
2023-12-03T18:47:31.792Z,38.23
2023-12-03T18:49:59.362Z,37.48
2023-12-03T18:52:26.293Z,37.91
2023-12-03T18:54:53.459Z,38.15
2023-12-03T18:57:20.591Z,36.17
2023-12-03T18:59:47.939Z,37.25
2023-12-03T19:02:14.945Z,37.03
2023-12-03T19:04:44.250Z,37.36
2023-12-03T19:07:11.758Z,37.00
2023-12-03T19:09:38.817Z,37.83
2023-12-03T19:12:06.495Z,37.09
2023-12-03T19:14:33.430Z,37.29
2023-12-03T19:17:00.489Z,37.36
2023-12-03T19:19:27.570Z,37.77
2023-12-03T19:21:56.197Z,38.21
2023-12-03T19:24:23.192Z,37.24
2023-12-03T19:26:50.200Z,37.12
2023-12-03T19:29:17.098Z,37.92
2023-12-03T19:31:43.995Z,37.49
2023-12-03T19:34:11.176Z,37.35
2023-12-03T19:36:38.242Z,37.72
2023-12-03T19:39:07.020Z,37.88
2023-12-03T19:41:34.204Z,38.60
2023-12-03T19:44:01.130Z,37.72
2023-12-03T19:46:28.324Z,37.99
2023-12-03T19:48:55.557Z,38.18
2023-12-03T19:51:22.731Z,37.49
2023-12-03T19:53:49.645Z,39.05
2023-12-03T19:56:18.005Z,38.21
2023-12-03T19:58:45.080Z,38.93
2023-12-03T20:01:13.935Z,38.87
2023-12-03T20:03:42.239Z,38.83
2023-12-03T20:06:10.466Z,38.40
2023-12-03T20:08:37.671Z,38.36
2023-12-03T20:11:05.169Z,39.29
2023-12-03T20:13:33.458Z,38.56
2023-12-03T20:16:01.137Z,39.25
2023-12-03T20:18:28.209Z,39.16
2023-12-03T20:20:55.289Z,39.22
2023-12-03T20:23:22.243Z,39.05
2023-12-03T20:25:49.761Z,39.78
2023-12-03T20:28:16.852Z,39.78
2023-12-03T20:30:45.611Z,38.99
2023-12-03T20:33:13.254Z,39.62
2023-12-03T20:35:40.240Z,40.72
2023-12-03T20:38:07.183Z,40.12
2023-12-03T20:40:34.270Z,40.64
2023-12-03T20:43:01.374Z,40.02
2023-12-03T20:45:28.499Z,40.42
2023-12-03T20:47:56.926Z,40.43
2023-12-03T20:50:23.968Z,40.38
2023-12-03T20:52:51.137Z,41.23
2023-12-03T20:55:18.182Z,40.64
2023-12-03T20:57:45.144Z,40.28
2023-12-03T21:00:13.297Z,40.82
2023-12-03T21:02:40.291Z,40.58
2023-12-03T21:05:09.841Z,40.21
2023-12-03T21:07:36.941Z,41.38
2023-12-03T21:10:04.316Z,41.48
2023-12-03T21:12:31.303Z,40.99
2023-12-03T21:14:58.255Z,41.83
2023-12-03T21:17:26.096Z,41.18
2023-12-03T21:19:53.161Z,41.95
2023-12-03T21:22:21.488Z,41.20
2023-12-03T21:24:48.513Z,41.33
2023-12-03T21:27:15.522Z,41.68
2023-12-03T21:29:42.768Z,41.80
2023-12-03T21:32:09.790Z,41.68
2023-12-03T21:34:36.856Z,41.81
2023-12-03T21:37:04.015Z,41.23
2023-12-03T21:39:32.532Z,41.66
2023-12-03T21:41:59.427Z,41.69
2023-12-03T21:44:26.927Z,41.16
2023-12-03T21:46:54.229Z,41.35
2023-12-03T21:49:21.314Z,40.64
2023-12-03T21:51:48.462Z,41.27
2023-12-03T21:54:15.615Z,40.96
2023-12-03T21:56:44.118Z,40.89
2023-12-03T21:59:11.194Z,40.48
2023-12-03T22:01:38.445Z,40.39
2023-12-03T22:04:05.649Z,39.79
2023-12-03T22:06:32.855Z,39.51
2023-12-03T22:08:59.768Z,39.79
2023-12-03T22:11:26.920Z,39.97
2023-12-03T22:13:55.800Z,39.58
2023-12-03T22:16:22.734Z,40.10
2023-12-03T22:18:49.726Z,40.25
2023-12-03T22:21:16.699Z,40.57
2023-12-03T22:23:43.820Z,40.30
2023-12-03T22:26:12.008Z,40.10
2023-12-03T22:28:39.152Z,40.14
2023-12-03T22:31:08.824Z,40.11
2023-12-03T22:33:35.911Z,40.04
2023-12-03T22:36:03.353Z,40.28
2023-12-03T22:38:30.997Z,40.88
2023-12-03T22:40:59.540Z,40.32
2023-12-03T22:43:29.762Z,40.36
2023-12-03T22:45:58.373Z,39.98
2023-12-03T22:48:27.442Z,39.46
2023-12-03T22:50:54.471Z,39.47
2023-12-03T22:53:21.451Z,40.23
2023-12-03T22:55:48.460Z,40.44
2023-12-03T22:58:15.731Z,40.13
2023-12-03T23:00:42.649Z,40.37
2023-12-03T23:03:09.732Z,40.04
2023-12-03T23:05:39.306Z,40.37
2023-12-03T23:08:06.772Z,40.28
2023-12-03T23:10:33.951Z,40.81
2023-12-03T23:13:01.923Z,41.10
2023-12-03T23:15:29.207Z,40.98
2023-12-03T23:17:56.359Z,41.53
2023-12-03T23:20:23.432Z,41.57
2023-12-03T23:22:52.000Z,40.96
2023-12-03T23:25:19.105Z,41.19
2023-12-03T23:27:46.272Z,42.07
2023-12-03T23:30:14.006Z,40.65
2023-12-03T23:32:43.143Z,40.48
2023-12-03T23:35:10.149Z,40.22
2023-12-03T23:37:37.096Z,40.71
2023-12-03T23:40:06.909Z,40.57
2023-12-03T23:42:34.028Z,40.97
2023-12-03T23:45:01.098Z,40.95
2023-12-03T23:47:28.505Z,40.95
2023-12-03T23:49:55.507Z,40.93
2023-12-03T23:52:22.535Z,41.42
2023-12-03T23:54:49.651Z,41.98
2023-12-03T23:57:18.157Z,41.29
2023-12-03T23:59:45.190Z,41.11
